createdAt,value
2019-04-03T00:00:45.989Z,14.10
2019-04-03T00:01:53.369Z,14.10
2019-04-03T00:03:00.589Z,14.10
2019-04-03T00:04:08.876Z,14.10
2019-04-03T00:05:16.106Z,14.10
2019-04-03T00:06:23.313Z,14.10
2019-04-03T00:07:30.523Z,14.00
2019-04-03T00:08:37.734Z,14.10
2019-04-03T00:09:44.945Z,14.10
2019-04-03T00:10:52.185Z,14.00
2019-04-03T00:11:59.383Z,14.00
2019-04-03T00:13:06.835Z,14.00
2019-04-03T00:14:14.058Z,14.00
2019-04-03T00:15:21.297Z,14.00
2019-04-03T00:16:28.540Z,14.00
2019-04-03T00:17:35.767Z,14.00
2019-04-03T00:18:42.991Z,13.90
2019-04-03T00:19:50.188Z,13.90
2019-04-03T00:20:57.396Z,13.90
2019-04-03T00:22:04.787Z,13.90
2019-04-03T00:23:12.013Z,13.90
2019-04-03T00:24:19.263Z,13.90
2019-04-03T00:25:27.859Z,13.90
2019-04-03T00:26:35.089Z,13.90
2019-04-03T00:27:42.310Z,13.90
2019-04-03T00:28:50.709Z,13.90
2019-04-03T00:29:58.452Z,13.90
2019-04-03T00:31:05.682Z,13.90
2019-04-03T00:32:12.918Z,13.90
2019-04-03T00:33:20.137Z,13.80
2019-04-03T00:34:27.344Z,13.80
2019-04-03T00:35:34.570Z,13.90
2019-04-03T00:36:41.810Z,13.90
2019-04-03T00:37:49.083Z,13.90
2019-04-03T00:38:56.331Z,13.90
2019-04-03T00:40:03.582Z,13.90
2019-04-03T00:41:10.869Z,13.90
2019-04-03T00:42:18.088Z,13.90
2019-04-03T00:43:26.305Z,13.90
2019-04-03T00:44:33.515Z,13.90
2019-04-03T00:45:40.714Z,13.90
2019-04-03T00:46:47.952Z,13.90
2019-04-03T00:47:55.707Z,13.90
2019-04-03T00:49:04.492Z,13.90
2019-04-03T00:50:11.714Z,13.90
2019-04-03T00:51:18.939Z,13.90
2019-04-03T00:52:27.533Z,13.90
2019-04-03T00:53:35.312Z,13.90
2019-04-03T00:54:42.507Z,13.90
2019-04-03T00:55:49.717Z,13.90
2019-04-03T00:56:57.090Z,13.90
2019-04-03T00:58:37.844Z,13.90
2019-04-03T00:59:45.197Z,13.80
2019-04-03T01:00:52.376Z,13.90
2019-04-03T01:02:00.666Z,13.80
2019-04-03T01:03:08.960Z,13.80
2019-04-03T01:04:16.212Z,13.80
2019-04-03T01:05:23.438Z,13.80
2019-04-03T01:06:30.664Z,13.80
2019-04-03T01:07:37.877Z,13.80
2019-04-03T01:08:45.132Z,13.80
2019-04-03T01:09:52.329Z,13.80
2019-04-03T01:11:00.416Z,13.80
2019-04-03T01:12:08.521Z,13.80
2019-04-03T01:13:15.932Z,13.80
2019-04-03T01:14:23.142Z,13.80
2019-04-03T01:15:31.663Z,13.80
2019-04-03T01:16:39.392Z,13.80
2019-04-03T01:17:46.671Z,13.90
2019-04-03T01:18:53.874Z,13.90
2019-04-03T01:20:01.078Z,13.90
2019-04-03T01:21:08.483Z,13.90
2019-04-03T01:22:15.694Z,13.90
2019-04-03T01:23:22.935Z,13.90
2019-04-03T01:24:30.177Z,13.90
2019-04-03T01:25:39.144Z,13.90
2019-04-03T01:26:46.324Z,14.00
2019-04-03T01:27:53.601Z,13.90
2019-04-03T01:29:00.826Z,13.90
2019-04-03T01:30:09.367Z,13.90
2019-04-03T01:31:16.580Z,13.90
2019-04-03T01:32:23.913Z,14.00
2019-04-03T01:33:31.263Z,13.90
2019-04-03T01:34:38.507Z,14.00
2019-04-03T01:35:47.463Z,14.00
2019-04-03T01:36:54.699Z,14.00
2019-04-03T01:38:01.925Z,14.00
2019-04-03T01:39:09.360Z,14.00
2019-04-03T01:40:16.606Z,14.00
2019-04-03T01:41:23.806Z,14.00
2019-04-03T01:42:31.007Z,14.00
2019-04-03T01:43:38.593Z,14.00
2019-04-03T01:44:45.818Z,14.00
2019-04-03T01:45:53.077Z,14.00
2019-04-03T01:47:00.468Z,14.00
2019-04-03T01:48:07.695Z,14.00
2019-04-03T01:49:14.932Z,14.00
2019-04-03T01:50:22.157Z,13.90
2019-04-03T01:51:29.943Z,14.00
2019-04-03T01:52:37.528Z,13.90
2019-04-03T01:53:45.789Z,13.90
2019-04-03T01:54:52.999Z,13.90
2019-04-03T01:56:00.239Z,13.90
2019-04-03T01:57:07.619Z,13.90
2019-04-03T01:58:14.913Z,13.90
2019-04-03T01:59:22.139Z,13.90
2019-04-03T02:00:29.364Z,13.90
2019-04-03T02:01:38.674Z,13.80
2019-04-03T02:02:45.648Z,13.80
2019-04-03T02:03:52.948Z,13.80
2019-04-03T02:05:00.202Z,13.80
2019-04-03T02:06:07.431Z,13.80
2019-04-03T02:07:15.163Z,13.70
2019-04-03T02:08:23.714Z,13.70
2019-04-03T02:09:31.143Z,13.70
2019-04-03T02:10:38.342Z,13.60
2019-04-03T02:11:45.631Z,13.60
2019-04-03T02:12:52.853Z,13.60
2019-04-03T02:14:00.245Z,13.70
2019-04-03T02:15:07.634Z,13.60
2019-04-03T02:16:14.889Z,13.60
2019-04-03T02:17:24.074Z,13.60
2019-04-03T02:18:31.040Z,13.60
2019-04-03T02:19:38.251Z,13.60
2019-04-03T02:20:45.504Z,13.60
2019-04-03T02:21:52.739Z,13.60
2019-04-03T02:23:00.572Z,13.60
2019-04-03T02:24:07.940Z,13.60
2019-04-03T02:25:15.259Z,13.60
2019-04-03T02:26:22.470Z,13.50
2019-04-03T02:27:29.686Z,13.50
2019-04-03T02:28:36.906Z,13.50
2019-04-03T02:29:44.120Z,13.50
2019-04-03T02:30:51.351Z,13.40
2019-04-03T02:31:59.895Z,13.40
2019-04-03T02:33:07.106Z,13.40
2019-04-03T02:34:14.312Z,13.40
2019-04-03T02:35:21.507Z,13.40
2019-04-03T02:36:28.937Z,13.30
2019-04-03T02:37:36.262Z,13.40
2019-04-03T02:38:43.499Z,13.40
2019-04-03T02:39:51.774Z,13.30
2019-04-03T02:40:58.972Z,13.30
2019-04-03T02:42:08.863Z,13.30
2019-04-03T02:43:15.567Z,13.30
2019-04-03T02:44:22.927Z,13.30
2019-04-03T02:45:30.156Z,13.30
2019-04-03T02:46:37.437Z,13.30
2019-04-03T02:47:44.971Z,13.30
2019-04-03T02:48:52.349Z,13.30
2019-04-03T02:49:59.586Z,13.30
2019-04-03T02:51:06.808Z,13.30
2019-04-03T02:52:14.652Z,13.30
2019-04-03T02:53:22.929Z,13.30
2019-04-03T02:54:35.519Z,13.30
2019-04-03T02:55:42.504Z,13.30
2019-04-03T02:56:49.719Z,13.30
2019-04-03T02:57:57.024Z,13.30
2019-04-03T02:59:04.546Z,13.30
2019-04-03T03:00:12.177Z,13.30
2019-04-03T03:01:19.553Z,13.30
2019-04-03T03:02:26.852Z,13.20
2019-04-03T03:03:34.118Z,13.20
2019-04-03T03:04:41.351Z,13.20
2019-04-03T03:05:48.750Z,13.20
2019-04-03T03:06:57.130Z,13.20
2019-04-03T03:08:08.028Z,13.20
2019-04-03T03:09:15.204Z,13.20
2019-04-03T03:10:22.465Z,13.20
2019-04-03T03:11:29.765Z,13.20
2019-04-03T03:12:39.107Z,13.20
2019-04-03T03:13:48.058Z,13.20
2019-04-03T03:14:56.065Z,13.20
2019-04-03T03:16:03.617Z,13.20
2019-04-03T03:17:11.911Z,13.20
2019-04-03T03:18:19.682Z,13.20
2019-04-03T03:19:27.513Z,13.20
2019-04-03T03:20:38.517Z,13.20
2019-04-03T03:21:46.196Z,13.20
2019-04-03T03:22:55.293Z,13.20
2019-04-03T03:24:03.359Z,13.20
2019-04-03T03:25:11.467Z,13.20
2019-04-03T03:26:19.000Z,13.20
2019-04-03T03:27:26.695Z,13.20
2019-04-03T03:28:34.975Z,13.20
2019-04-03T03:29:43.976Z,13.20
2019-04-03T03:31:01.032Z,13.20
2019-04-03T03:32:13.240Z,13.20
2019-04-03T03:33:27.358Z,13.20
2019-04-03T03:34:46.271Z,13.20
2019-04-03T03:35:39.536Z,13.20
2019-04-03T03:36:40.550Z,13.20
2019-04-03T03:37:49.019Z,13.20
2019-04-03T03:38:58.640Z,13.10
2019-04-03T03:40:06.807Z,13.10
2019-04-03T03:41:15.298Z,13.10
2019-04-03T03:42:23.872Z,13.10
2019-04-03T03:43:31.426Z,13.10
2019-04-03T03:44:43.214Z,13.10
2019-04-03T03:45:51.446Z,13.10
2019-04-03T03:47:01.908Z,13.10
2019-04-03T03:48:11.103Z,13.00
2019-04-03T03:49:19.082Z,13.10
2019-04-03T03:50:27.191Z,13.10
2019-04-03T03:51:34.987Z,13.10
2019-04-03T03:52:42.943Z,13.00
2019-04-03T03:53:50.883Z,13.10
2019-04-03T03:54:58.663Z,13.10
2019-04-03T03:56:06.367Z,13.00
2019-04-03T03:57:14.778Z,13.00
2019-04-03T03:58:22.596Z,13.00
2019-04-03T03:59:30.806Z,13.00
2019-04-03T04:00:38.806Z,12.90
2019-04-03T04:01:46.288Z,12.90
2019-04-03T04:02:54.040Z,13.00
2019-04-03T04:04:01.658Z,12.90
2019-04-03T04:05:11.336Z,12.90
2019-04-03T04:06:18.416Z,12.90
2019-04-03T04:07:26.108Z,12.90
2019-04-03T04:08:33.631Z,12.90
2019-04-03T04:09:41.062Z,12.80
2019-04-03T04:10:48.209Z,12.80
2019-04-03T04:11:56.023Z,12.90
2019-04-03T04:13:03.672Z,12.80
2019-04-03T04:14:11.773Z,12.80
2019-04-03T04:15:19.622Z,12.80
2019-04-03T04:16:27.688Z,12.80
2019-04-03T04:17:35.854Z,12.90
2019-04-03T04:18:43.201Z,12.90
2019-04-03T04:19:50.498Z,12.80
2019-04-03T04:20:58.835Z,12.80
2019-04-03T04:22:06.048Z,12.90
2019-04-03T04:23:13.898Z,12.80
2019-04-03T04:24:21.501Z,12.90
2019-04-03T04:25:30.559Z,12.80
2019-04-03T04:26:38.394Z,12.80
2019-04-03T04:27:46.190Z,12.80
2019-04-03T04:28:53.466Z,12.80
2019-04-03T04:30:00.656Z,12.80
2019-04-03T04:31:07.855Z,12.80
2019-04-03T04:32:15.433Z,12.80
2019-04-03T04:33:23.003Z,12.80
2019-04-03T04:34:30.484Z,12.80
2019-04-03T04:35:37.765Z,12.80
2019-04-03T04:36:45.009Z,12.80
2019-04-03T04:37:52.233Z,12.80
2019-04-03T04:38:59.459Z,12.80
2019-04-03T04:40:07.028Z,12.80
2019-04-03T04:41:14.258Z,12.80
2019-04-03T04:42:21.451Z,12.80
2019-04-03T04:43:28.690Z,12.80
2019-04-03T04:44:35.917Z,12.80
2019-04-03T04:45:43.312Z,12.80
2019-04-03T04:46:50.698Z,12.80
2019-04-03T04:47:59.379Z,12.80
2019-04-03T04:49:06.635Z,12.80
2019-04-03T04:50:18.784Z,12.70
2019-04-03T04:51:26.452Z,12.70
2019-04-03T04:52:33.763Z,12.70
2019-04-03T04:53:40.969Z,12.70
2019-04-03T04:54:48.389Z,12.70
2019-04-03T04:55:55.572Z,12.70
2019-04-03T04:57:02.826Z,12.70
2019-04-03T04:58:11.665Z,12.60
2019-04-03T04:59:19.047Z,12.60
2019-04-03T05:00:29.226Z,12.60
2019-04-03T05:01:35.187Z,12.60
2019-04-03T05:02:42.412Z,12.60
2019-04-03T05:03:49.650Z,12.60
2019-04-03T05:04:56.860Z,12.60
2019-04-03T05:06:04.160Z,12.60
2019-04-03T05:07:11.471Z,12.60
2019-04-03T05:08:18.701Z,12.60
2019-04-03T05:09:25.958Z,12.60
2019-04-03T05:10:36.409Z,12.60
2019-04-03T05:11:42.403Z,12.50
2019-04-03T05:12:50.668Z,12.50
2019-04-03T05:13:57.927Z,12.50
2019-04-03T05:15:05.549Z,12.50
2019-04-03T05:16:12.795Z,12.50
2019-04-03T05:17:20.785Z,12.50
2019-04-03T05:18:29.307Z,12.50
2019-04-03T05:19:36.887Z,12.50
2019-04-03T05:20:44.517Z,12.50
2019-04-03T05:21:52.875Z,12.50
2019-04-03T05:23:00.739Z,12.50
2019-04-03T05:24:13.150Z,12.50
2019-04-03T05:25:16.907Z,12.50
2019-04-03T05:26:24.172Z,12.50
2019-04-03T05:27:33.499Z,12.50
2019-04-03T05:28:40.319Z,12.50
2019-04-03T05:29:47.912Z,12.50
2019-04-03T05:30:55.085Z,12.50
2019-04-03T05:32:02.299Z,12.60
2019-04-03T05:33:11.237Z,12.50
2019-04-03T05:34:18.415Z,12.60
2019-04-03T05:35:25.679Z,12.60
2019-04-03T05:36:32.922Z,12.60
2019-04-03T05:37:40.361Z,12.60
2019-04-03T05:38:47.559Z,12.60
2019-04-03T05:39:56.197Z,12.60
2019-04-03T05:41:03.454Z,12.60
2019-04-03T05:42:10.662Z,12.60
2019-04-03T05:43:18.149Z,12.70
2019-04-03T05:44:25.473Z,12.60
2019-04-03T05:45:34.690Z,12.60
2019-04-03T05:46:41.607Z,12.60
2019-04-03T05:47:48.863Z,12.60
2019-04-03T05:48:56.086Z,12.60
2019-04-03T05:50:03.535Z,12.60
2019-04-03T05:51:11.109Z,12.70
2019-04-03T05:52:18.348Z,12.60
2019-04-03T05:53:25.664Z,12.60
2019-04-03T05:54:32.907Z,12.60
2019-04-03T05:55:41.028Z,12.60
2019-04-03T05:56:51.320Z,12.60
2019-04-03T05:57:57.900Z,12.60
2019-04-03T05:59:05.095Z,12.60
2019-04-03T06:00:12.567Z,12.60
2019-04-03T06:01:19.742Z,12.60
2019-04-03T06:02:27.231Z,12.60
2019-04-03T06:03:40.846Z,12.60
2019-04-03T06:04:43.444Z,12.70
2019-04-03T06:05:50.834Z,12.60
2019-04-03T06:06:58.062Z,12.60
2019-04-03T06:08:05.287Z,12.70
2019-04-03T06:09:12.493Z,12.60
2019-04-03T06:10:19.740Z,12.60
2019-04-03T06:11:27.955Z,12.60
2019-04-03T06:12:36.683Z,12.60
2019-04-03T06:13:44.327Z,12.70
2019-04-03T06:14:51.479Z,12.70
2019-04-03T06:15:58.703Z,12.70
2019-04-03T06:17:05.925Z,12.70
2019-04-03T06:18:13.126Z,12.70
2019-04-03T06:19:21.447Z,12.70
2019-04-03T06:20:28.673Z,12.70
2019-04-03T06:21:35.967Z,12.70
2019-04-03T06:22:51.125Z,12.70
2019-04-03T06:23:58.593Z,12.70
2019-04-03T06:25:06.861Z,12.70
2019-04-03T06:26:14.320Z,12.70
2019-04-03T06:27:21.644Z,12.70
2019-04-03T06:28:29.668Z,12.60
2019-04-03T06:29:36.936Z,12.60
2019-04-03T06:30:44.756Z,12.60
2019-04-03T06:31:52.064Z,12.60
2019-04-03T06:33:01.985Z,12.60
2019-04-03T06:34:10.071Z,12.60
2019-04-03T06:35:17.403Z,12.50
2019-04-03T06:36:24.644Z,12.60
2019-04-03T06:37:32.244Z,12.50
2019-04-03T06:38:39.867Z,12.50
2019-04-03T06:39:47.168Z,12.50
2019-04-03T06:40:54.387Z,12.50
2019-04-03T06:42:01.682Z,12.50
2019-04-03T06:43:09.981Z,12.50
2019-04-03T06:44:17.325Z,12.50
2019-04-03T06:45:26.149Z,12.50
2019-04-03T06:46:33.594Z,12.50
2019-04-03T06:47:40.839Z,12.50
2019-04-03T06:48:48.274Z,12.50
2019-04-03T06:49:55.509Z,12.50
2019-04-03T06:51:02.764Z,12.50
2019-04-03T06:52:10.115Z,12.50
2019-04-03T06:53:17.605Z,12.60
2019-04-03T06:54:24.879Z,12.60
2019-04-03T06:55:33.215Z,12.60
2019-04-03T06:56:41.328Z,12.60
2019-04-03T06:57:49.107Z,12.60
2019-04-03T06:58:56.365Z,12.60
2019-04-03T07:00:03.589Z,12.60
2019-04-03T07:01:11.910Z,12.60
2019-04-03T07:02:19.155Z,12.70
2019-04-03T07:03:26.392Z,12.70
2019-04-03T07:04:33.672Z,12.70
2019-04-03T07:05:41.689Z,12.70
2019-04-03T07:06:49.350Z,12.70
2019-04-03T07:07:56.602Z,12.80
2019-04-03T07:09:06.294Z,12.80
2019-04-03T07:10:24.135Z,12.80
2019-04-03T07:11:23.923Z,12.80
2019-04-03T07:12:31.638Z,12.80
2019-04-03T07:13:38.916Z,12.80
2019-04-03T07:14:46.156Z,12.90
2019-04-03T07:15:55.745Z,12.90
2019-04-03T07:17:05.169Z,13.00
2019-04-03T07:18:11.497Z,13.00
2019-04-03T07:19:18.788Z,13.00
2019-04-03T07:20:26.034Z,13.00
2019-04-03T07:21:33.291Z,13.00
2019-04-03T07:22:40.516Z,13.10
2019-04-03T07:23:48.028Z,13.00
2019-04-03T07:24:55.301Z,13.10
2019-04-03T07:26:02.946Z,13.10
2019-04-03T07:27:14.408Z,13.10
2019-04-03T07:28:20.336Z,13.20
2019-04-03T07:29:28.552Z,13.20
2019-04-03T07:30:35.822Z,13.20
2019-04-03T07:31:43.051Z,13.30
2019-04-03T07:32:50.304Z,13.30
2019-04-03T07:33:58.601Z,13.30
2019-04-03T07:35:10.149Z,13.30
2019-04-03T07:36:15.754Z,13.40
2019-04-03T07:37:22.960Z,13.40
2019-04-03T07:38:30.170Z,13.40
2019-04-03T07:39:37.417Z,13.50
2019-04-03T07:40:44.652Z,13.40
2019-04-03T07:41:54.433Z,13.50
2019-04-03T07:43:00.874Z,13.50
2019-04-03T07:44:08.120Z,13.50
2019-04-03T07:45:16.136Z,13.50
2019-04-03T07:46:23.411Z,13.50
2019-04-03T07:47:34.339Z,13.50
2019-04-03T07:48:40.696Z,13.60
2019-04-03T07:49:47.935Z,13.60
2019-04-03T07:50:55.164Z,13.60
2019-04-03T07:52:02.583Z,13.60
2019-04-03T07:53:09.880Z,13.60
2019-04-03T07:54:17.112Z,13.60
2019-04-03T07:55:27.713Z,13.60
2019-04-03T07:56:34.144Z,13.70
2019-04-03T07:57:41.618Z,13.70
2019-04-03T07:58:49.177Z,13.70
2019-04-03T07:59:56.591Z,13.70
2019-04-03T08:01:03.785Z,13.70
2019-04-03T08:02:12.808Z,13.70
2019-04-03T08:03:20.708Z,13.70
2019-04-03T08:04:29.147Z,13.70
2019-04-03T08:05:36.813Z,13.70
2019-04-03T08:06:44.371Z,13.70
2019-04-03T08:07:52.506Z,13.70
2019-04-03T08:09:07.665Z,13.80
2019-04-03T08:10:10.831Z,13.70
2019-04-03T08:11:18.055Z,13.80
2019-04-03T08:12:25.562Z,13.70
2019-04-03T08:13:32.777Z,13.80
2019-04-03T08:14:41.129Z,13.80
2019-04-03T08:15:49.134Z,13.70
2019-04-03T08:16:57.238Z,13.80
2019-04-03T08:18:04.565Z,13.80
2019-04-03T08:19:11.949Z,13.80
2019-04-03T08:20:20.053Z,13.80
2019-04-03T08:21:28.066Z,13.80
2019-04-03T08:22:36.916Z,13.90
2019-04-03T08:23:44.269Z,13.90
2019-04-03T08:24:53.319Z,13.90
2019-04-03T08:26:00.669Z,13.90
2019-04-03T08:27:08.670Z,13.90
2019-04-03T08:28:16.114Z,13.90
2019-04-03T08:29:23.335Z,14.00
2019-04-03T08:30:30.615Z,14.00
2019-04-03T08:31:37.818Z,14.00
2019-04-03T08:32:47.699Z,14.00
2019-04-03T08:33:53.978Z,14.10
2019-04-03T08:35:03.732Z,14.10
2019-04-03T08:36:22.587Z,14.10
2019-04-03T08:37:29.623Z,14.20
2019-04-03T08:38:27.993Z,14.20
2019-04-03T08:39:35.240Z,14.20
2019-04-03T08:40:42.569Z,14.20
2019-04-03T08:41:49.863Z,14.20
2019-04-03T08:42:59.403Z,14.20
2019-04-03T08:44:08.436Z,14.20
2019-04-03T08:45:16.244Z,14.30
2019-04-03T08:46:23.441Z,14.30
2019-04-03T08:47:30.913Z,14.30
2019-04-03T08:48:38.394Z,14.30
2019-04-03T08:49:45.704Z,14.30
2019-04-03T08:50:52.930Z,14.30
2019-04-03T08:52:00.395Z,14.40
2019-04-03T08:53:08.759Z,14.40
2019-04-03T08:54:16.198Z,14.40
2019-04-03T08:55:23.438Z,14.50
2019-04-03T08:56:30.665Z,14.50
2019-04-03T08:57:38.191Z,14.50
2019-04-03T08:58:45.996Z,14.60
2019-04-03T08:59:53.349Z,14.60
2019-04-03T09:01:03.664Z,14.60
2019-04-03T09:02:12.736Z,14.70
2019-04-03T09:03:19.543Z,14.70
2019-04-03T09:04:26.784Z,14.80
2019-04-03T09:05:34.084Z,14.80
2019-04-03T09:06:41.296Z,14.80
2019-04-03T09:07:48.552Z,14.80
2019-04-03T09:08:58.211Z,14.90
2019-04-03T09:10:05.377Z,14.90
2019-04-03T09:11:12.621Z,14.90
2019-04-03T09:12:19.899Z,14.90
2019-04-03T09:13:27.174Z,14.90
2019-04-03T09:14:34.896Z,14.90
2019-04-03T09:15:42.407Z,15.00
2019-04-03T09:16:50.038Z,15.00
2019-04-03T09:17:57.670Z,15.00
2019-04-03T09:19:04.978Z,15.00
2019-04-03T09:20:13.865Z,15.10
2019-04-03T09:21:21.710Z,15.10
2019-04-03T09:22:29.138Z,15.10
2019-04-03T09:23:36.530Z,15.10
2019-04-03T09:24:44.059Z,15.20
2019-04-03T09:25:51.552Z,15.20
2019-04-03T09:26:58.837Z,15.20
2019-04-03T09:28:06.206Z,15.30
2019-04-03T09:29:13.792Z,15.30
2019-04-03T09:30:22.062Z,15.30
2019-04-03T09:31:29.287Z,15.30
2019-04-03T09:32:37.509Z,15.30
2019-04-03T09:33:46.440Z,15.30
2019-04-03T09:34:54.143Z,15.40
2019-04-03T09:36:03.390Z,15.40
2019-04-03T09:37:10.275Z,15.50
2019-04-03T09:38:17.530Z,15.40
2019-04-03T09:39:25.062Z,15.50
2019-04-03T09:40:32.282Z,15.50
2019-04-03T09:41:39.617Z,15.50
2019-04-03T09:42:46.808Z,15.60
2019-04-03T09:43:54.703Z,15.60
2019-04-03T09:45:01.991Z,15.60
2019-04-03T09:46:09.476Z,15.60
2019-04-03T09:47:16.809Z,15.70
2019-04-03T09:48:24.061Z,15.70
2019-04-03T09:49:31.261Z,15.80
2019-04-03T09:50:38.515Z,15.80
2019-04-03T09:51:46.025Z,15.80
2019-04-03T09:52:54.901Z,15.90
2019-04-03T09:54:02.144Z,15.90
2019-04-03T09:55:09.774Z,16.00
2019-04-03T09:56:17.076Z,16.00
2019-04-03T09:57:24.540Z,16.00
2019-04-03T09:58:34.575Z,16.10
2019-04-03T09:59:40.779Z,16.10
2019-04-03T10:00:48.051Z,16.20
2019-04-03T10:01:55.292Z,16.20
2019-04-03T10:03:05.384Z,16.30
2019-04-03T10:04:11.471Z,16.30
2019-04-03T10:05:18.719Z,16.30
2019-04-03T10:06:25.922Z,16.40
2019-04-03T10:07:36.336Z,16.40
2019-04-03T10:08:43.584Z,16.50
2019-04-03T10:09:53.748Z,16.50
2019-04-03T10:10:59.855Z,16.60
2019-04-03T10:12:07.182Z,16.60
2019-04-03T10:13:14.500Z,16.70
2019-04-03T10:14:21.735Z,16.80
2019-04-03T10:15:31.515Z,16.80
2019-04-03T10:16:38.024Z,16.90
2019-04-03T10:17:45.504Z,17.00
2019-04-03T10:18:52.788Z,17.00
2019-04-03T10:20:00.035Z,17.10
2019-04-03T10:21:07.282Z,17.10
2019-04-03T10:22:14.469Z,17.10
2019-04-03T10:23:21.708Z,17.10
2019-04-03T10:24:30.986Z,17.20
2019-04-03T10:25:38.403Z,17.20
2019-04-03T10:26:45.924Z,17.20
2019-04-03T10:27:53.218Z,17.20
2019-04-03T10:29:00.464Z,17.30
2019-04-03T10:30:11.012Z,17.30
2019-04-03T10:31:18.312Z,17.30
2019-04-03T10:32:27.981Z,17.40
2019-04-03T10:33:34.681Z,17.40
2019-04-03T10:34:41.911Z,17.40
2019-04-03T10:35:49.179Z,17.50
2019-04-03T10:36:56.412Z,17.50
2019-04-03T10:38:03.739Z,17.60
2019-04-03T10:39:13.422Z,17.60
2019-04-03T10:40:23.532Z,17.60
2019-04-03T10:41:31.514Z,17.60
2019-04-03T10:42:40.215Z,17.70
2019-04-03T10:43:47.665Z,17.70
2019-04-03T10:44:54.956Z,17.70
2019-04-03T10:46:02.204Z,17.70
2019-04-03T10:47:09.478Z,17.80
2019-04-03T10:48:16.769Z,17.80
2019-04-03T10:49:24.081Z,17.80
2019-04-03T10:50:31.640Z,17.90
2019-04-03T10:51:40.941Z,17.90
2019-04-03T10:52:49.239Z,18.00
2019-04-03T10:53:56.579Z,18.00
2019-04-03T10:55:03.920Z,18.00
2019-04-03T10:56:11.180Z,18.10
2019-04-03T10:57:18.634Z,18.10
2019-04-03T10:58:25.993Z,18.20
2019-04-03T10:59:33.251Z,18.20
2019-04-03T11:00:40.716Z,18.30
2019-04-03T11:01:48.167Z,18.30
2019-04-03T11:02:55.559Z,18.30
2019-04-03T11:04:02.827Z,18.40
2019-04-03T11:05:11.021Z,18.40
2019-04-03T11:06:18.381Z,18.50
2019-04-03T11:07:25.758Z,18.50
2019-04-03T11:08:33.076Z,18.60
2019-04-03T11:09:40.369Z,18.60
2019-04-03T11:10:47.633Z,18.60
2019-04-03T11:11:54.911Z,18.60
2019-04-03T11:13:03.579Z,18.60
2019-04-03T11:14:11.113Z,18.60
2019-04-03T11:15:18.554Z,18.60
2019-04-03T11:16:27.729Z,18.60
2019-04-03T11:17:35.109Z,18.60
2019-04-03T11:18:42.520Z,18.50
2019-04-03T11:19:49.726Z,18.50
2019-04-03T11:20:56.982Z,18.50
2019-04-03T11:22:04.225Z,18.50
2019-04-03T11:23:11.483Z,18.50
2019-04-03T11:24:19.082Z,18.50
2019-04-03T11:25:27.467Z,18.50
2019-04-03T11:26:34.688Z,18.50
2019-04-03T11:27:44.826Z,18.50
2019-04-03T11:28:50.843Z,18.50
2019-04-03T11:29:58.188Z,18.60
2019-04-03T11:31:05.505Z,18.60
2019-04-03T11:32:12.952Z,18.60
2019-04-03T11:33:21.386Z,18.60
2019-04-03T11:34:28.927Z,18.60
2019-04-03T11:35:36.215Z,18.70
2019-04-03T11:36:43.462Z,18.70
2019-04-03T11:37:50.730Z,18.80
2019-04-03T11:39:11.062Z,18.80
2019-04-03T11:40:08.769Z,18.90
2019-04-03T11:41:19.136Z,19.00
2019-04-03T11:42:28.668Z,19.00
2019-04-03T11:43:33.991Z,19.10
2019-04-03T11:44:41.178Z,19.10
2019-04-03T11:45:48.384Z,19.20
2019-04-03T11:46:55.903Z,19.30
2019-04-03T11:48:03.174Z,19.30
2019-04-03T11:49:10.485Z,19.40
2019-04-03T11:50:18.389Z,19.50
2019-04-03T11:51:28.995Z,19.50
2019-04-03T11:52:34.658Z,19.60
2019-04-03T11:53:44.539Z,19.70
2019-04-03T11:54:52.778Z,19.70
2019-04-03T11:55:59.763Z,19.80
2019-04-03T11:57:07.030Z,19.80
2019-04-03T11:58:14.350Z,19.90
2019-04-03T11:59:23.709Z,20.00
2019-04-03T12:00:35.226Z,20.00
2019-04-03T12:01:43.193Z,20.10
2019-04-03T12:02:50.562Z,20.10
2019-04-03T12:03:57.838Z,20.10
2019-04-03T12:05:05.846Z,20.20
2019-04-03T12:06:15.678Z,20.20
2019-04-03T12:07:22.865Z,20.30
2019-04-03T12:08:32.412Z,20.30
2019-04-03T12:09:39.699Z,20.40
2019-04-03T12:10:47.279Z,20.40
2019-04-03T12:11:55.502Z,20.40
2019-04-03T12:13:04.191Z,20.50
2019-04-03T12:14:11.995Z,20.50
2019-04-03T12:15:21.412Z,20.50
2019-04-03T12:16:28.191Z,20.50
2019-04-03T12:17:35.496Z,20.50
2019-04-03T12:18:42.816Z,20.60
2019-04-03T12:19:50.063Z,20.60
2019-04-03T12:20:57.636Z,20.60
2019-04-03T12:22:04.911Z,20.60
2019-04-03T12:23:12.190Z,20.60
2019-04-03T12:24:19.407Z,20.70
2019-04-03T12:25:26.643Z,20.70
2019-04-03T12:26:33.854Z,20.70
2019-04-03T12:27:41.471Z,20.70
2019-04-03T12:28:50.018Z,20.70
2019-04-03T12:29:57.381Z,20.80
2019-04-03T12:31:05.081Z,20.80
2019-04-03T12:32:12.430Z,20.80
2019-04-03T12:33:21.227Z,20.90
2019-04-03T12:34:28.554Z,21.00
2019-04-03T12:35:35.804Z,21.00
2019-04-03T12:36:45.199Z,21.10
2019-04-03T12:37:52.245Z,21.10
2019-04-03T12:38:59.781Z,21.20
2019-04-03T12:40:09.825Z,21.20
2019-04-03T12:41:17.034Z,21.20
2019-04-03T12:42:24.560Z,21.20
2019-04-03T12:43:35.008Z,21.20
2019-04-03T12:44:42.193Z,21.20
2019-04-03T12:45:49.424Z,21.20
2019-04-03T12:46:56.818Z,21.20
2019-04-03T12:48:04.069Z,21.20
2019-04-03T12:49:11.277Z,21.20
2019-04-03T12:50:18.743Z,21.20
2019-04-03T12:51:25.938Z,21.20
2019-04-03T12:52:33.324Z,21.20
2019-04-03T12:53:40.657Z,21.20
2019-04-03T12:54:48.795Z,21.20
2019-04-03T12:55:58.004Z,21.20
2019-04-03T12:57:05.650Z,21.20
2019-04-03T12:58:12.876Z,21.30
2019-04-03T12:59:20.996Z,21.30
2019-04-03T13:00:28.560Z,21.30
2019-04-03T13:01:35.878Z,21.30
2019-04-03T13:02:43.300Z,21.30
2019-04-03T13:03:50.911Z,21.30
2019-04-03T13:05:00.420Z,21.30
2019-04-03T13:06:09.710Z,21.30
2019-04-03T13:07:16.206Z,21.20
2019-04-03T13:08:23.403Z,21.10
2019-04-03T13:09:30.775Z,21.10
2019-04-03T13:10:42.698Z,21.00
2019-04-03T13:11:49.827Z,20.90
2019-04-03T13:12:57.186Z,20.80
2019-04-03T13:14:04.884Z,20.70
2019-04-03T13:15:12.925Z,20.70
2019-04-03T13:16:21.926Z,20.60
2019-04-03T13:17:29.430Z,20.60
2019-04-03T13:18:36.655Z,20.50
2019-04-03T13:19:44.022Z,20.50
2019-04-03T13:20:51.272Z,20.40
2019-04-03T13:21:58.515Z,20.30
2019-04-03T13:23:05.723Z,20.30
2019-04-03T13:24:16.065Z,20.30
2019-04-03T13:25:22.286Z,20.20
2019-04-03T13:26:29.639Z,20.10
2019-04-03T13:27:37.582Z,20.10
2019-04-03T13:28:45.006Z,20.10
2019-04-03T13:29:52.331Z,20.10
2019-04-03T13:30:59.624Z,20.10
2019-04-03T13:32:06.856Z,20.00
2019-04-03T13:33:16.575Z,20.00
2019-04-03T13:34:23.131Z,20.00
2019-04-03T13:35:30.830Z,20.10
2019-04-03T13:36:38.172Z,20.10
2019-04-03T13:37:45.423Z,20.10
2019-04-03T13:38:52.680Z,20.20
2019-04-03T13:40:00.931Z,20.20
2019-04-03T13:41:10.645Z,20.30
2019-04-03T13:42:18.297Z,20.30
2019-04-03T13:43:25.709Z,20.40
2019-04-03T13:44:33.455Z,20.50
2019-04-03T13:45:41.050Z,20.60
2019-04-03T13:46:48.880Z,20.60
2019-04-03T13:47:56.495Z,20.70
2019-04-03T13:49:03.774Z,20.80
2019-04-03T13:50:11.719Z,20.80
2019-04-03T13:51:18.998Z,20.90
2019-04-03T13:52:39.074Z,21.00
2019-04-03T13:53:35.946Z,21.00
2019-04-03T13:54:45.193Z,21.10
2019-04-03T13:55:52.184Z,21.20
2019-04-03T13:56:59.398Z,21.20
2019-04-03T13:58:07.006Z,21.30
2019-04-03T13:59:14.387Z,21.40
2019-04-03T14:00:23.660Z,21.50
2019-04-03T14:01:31.525Z,21.60
2019-04-03T14:02:38.908Z,21.60
2019-04-03T14:03:46.362Z,21.80
2019-04-03T14:04:54.704Z,21.80
2019-04-03T14:06:04.475Z,21.90
2019-04-03T14:07:11.556Z,21.90
2019-04-03T14:08:18.768Z,22.00
2019-04-03T14:09:26.103Z,22.00
2019-04-03T14:10:33.391Z,22.00
2019-04-03T14:11:41.069Z,22.00
2019-04-03T14:12:49.878Z,22.00
2019-04-03T14:13:57.407Z,22.10
2019-04-03T14:15:05.580Z,22.00
2019-04-03T14:16:19.951Z,22.10
2019-04-03T14:17:21.768Z,22.20
2019-04-03T14:18:29.010Z,22.20
2019-04-03T14:19:43.329Z,22.20
2019-04-03T14:20:45.154Z,22.20
2019-04-03T14:21:52.413Z,22.30
2019-04-03T14:23:03.010Z,22.30
2019-04-03T14:24:09.652Z,22.30
2019-04-03T14:25:20.597Z,22.30
2019-04-03T14:26:26.230Z,22.30
2019-04-03T14:27:33.926Z,22.20
2019-04-03T14:28:42.077Z,22.20
2019-04-03T14:29:49.531Z,22.20
2019-04-03T14:30:56.745Z,22.20
2019-04-03T14:32:04.243Z,22.20
2019-04-03T14:33:11.481Z,22.20